sensor_id;sensor_type;location;lat;lon;timestamp;P1;durP1;ratioP1;P2;durP2;ratioP2
12758;SDS011;20944;47.048;15.390;2022-09-12T00:01:15;0.20;;;0.20;;
12758;SDS011;20944;47.048;15.390;2022-09-12T00:03:46;0.20;;;0.20;;
12758;SDS011;20944;47.048;15.390;2022-09-12T00:06:16;0.60;;;0.20;;
12758;SDS011;20944;47.048;15.390;2022-09-12T00:08:50;0.10;;;0.10;;
12758;SDS011;20944;47.048;15.390;2022-09-12T00:11:20;0.20;;;0.20;;
12758;SDS011;20944;47.048;15.390;2022-09-12T00:13:49;0.57;;;0.20;;
12758;SDS011;20944;47.048;15.390;2022-09-12T00:16:18;0.67;;;0.17;;
12758;SDS011;20944;47.048;15.390;2022-09-12T00:18:48;0.77;;;0.17;;
12758;SDS011;20944;47.048;15.390;2022-09-12T00:21:17;0.20;;;0.20;;
12758;SDS011;20944;47.048;15.390;2022-09-12T00:23:45;0.10;;;0.10;;
12758;SDS011;20944;47.048;15.390;2022-09-12T00:26:15;0.43;;;0.20;;
12758;SDS011;20944;47.048;15.390;2022-09-12T00:28:45;2.73;;;0.20;;
12758;SDS011;20944;47.048;15.390;2022-09-12T00:31:14;0.20;;;0.20;;
12758;SDS011;20944;47.048;15.390;2022-09-12T00:33:44;0.77;;;0.30;;
12758;SDS011;20944;47.048;15.390;2022-09-12T00:36:14;0.07;;;0.07;;
12758;SDS011;20944;47.048;15.390;2022-09-12T00:38:44;0.20;;;0.20;;
12758;SDS011;20944;47.048;15.390;2022-09-12T00:41:14;0.20;;;0.20;;
12758;SDS011;20944;47.048;15.390;2022-09-12T00:43:47;0.10;;;0.10;;
12758;SDS011;20944;47.048;15.390;2022-09-12T00:46:20;0.20;;;0.20;;
12758;SDS011;20944;47.048;15.390;2022-09-12T00:48:59;0.10;;;0.10;;
12758;SDS011;20944;47.048;15.390;2022-09-12T00:51:31;0.40;;;0.20;;
12758;SDS011;20944;47.048;15.390;2022-09-12T00:54:02;0.37;;;0.17;;
12758;SDS011;20944;47.048;15.390;2022-09-12T00:56:38;0.40;;;0.20;;
12758;SDS011;20944;47.048;15.390;2022-09-12T00:59:10;0.60;;;0.20;;
12758;SDS011;20944;47.048;15.390;2022-09-12T01:01:44;0.10;;;0.10;;
12758;SDS011;20944;47.048;15.390;2022-09-12T01:04:16;0.10;;;0.10;;
12758;SDS011;20944;47.048;15.390;2022-09-12T01:06:46;0.20;;;0.20;;
12758;SDS011;20944;47.048;15.390;2022-09-12T01:09:17;0.47;;;0.30;;
12758;SDS011;20944;47.048;15.390;2022-09-12T01:11:48;0.20;;;0.20;;
12758;SDS011;20944;47.048;15.390;2022-09-12T01:14:18;0.33;;;0.30;;
12758;SDS011;20944;47.048;15.390;2022-09-12T01:16:47;0.30;;;0.30;;
12758;SDS011;20944;47.048;15.390;2022-09-12T01:22:29;0.20;;;0.20;;
12758;SDS011;20944;47.048;15.390;2022-09-12T01:25:22;0.20;;;0.20;;
12758;SDS011;20944;47.048;15.390;2022-09-12T01:28:13;1.70;;;0.30;;
12758;SDS011;20944;47.048;15.390;2022-09-12T01:30:59;0.30;;;0.30;;
12758;SDS011;20944;47.048;15.390;2022-09-12T01:33:34;0.30;;;0.20;;
12758;SDS011;20944;47.048;15.390;2022-09-12T01:36:26;0.40;;;0.33;;
12758;SDS011;20944;47.048;15.390;2022-09-12T01:39:02;0.27;;;0.27;;
12758;SDS011;20944;47.048;15.390;2022-09-12T01:41:36;0.30;;;0.30;;
12758;SDS011;20944;47.048;15.390;2022-09-12T01:44:13;0.47;;;0.30;;
12758;SDS011;20944;47.048;15.390;2022-09-12T01:46:51;0.90;;;0.33;;
12758;SDS011;20944;47.048;15.390;2022-09-12T01:49:23;0.57;;;0.30;;
12758;SDS011;20944;47.048;15.390;2022-09-12T01:51:56;1.33;;;0.30;;
12758;SDS011;20944;47.048;15.390;2022-09-12T01:54:29;0.27;;;0.27;;
12758;SDS011;20944;47.048;15.390;2022-09-12T01:57:06;0.30;;;0.20;;
12758;SDS011;20944;47.048;15.390;2022-09-12T01:59:40;0.40;;;0.10;;
12758;SDS011;20944;47.048;15.390;2022-09-12T02:02:14;0.27;;;0.20;;
12758;SDS011;20944;47.048;15.390;2022-09-12T02:04:46;0.57;;;0.20;;
12758;SDS011;20944;47.048;15.390;2022-09-12T02:07:19;0.30;;;0.23;;
12758;SDS011;20944;47.048;15.390;2022-09-12T02:09:53;0.40;;;0.30;;
12758;SDS011;20944;47.048;15.390;2022-09-12T02:12:26;1.60;;;0.27;;
12758;SDS011;20944;47.048;15.390;2022-09-12T02:15:02;0.40;;;0.30;;
12758;SDS011;20944;47.048;15.390;2022-09-12T02:17:37;0.37;;;0.20;;
12758;SDS011;20944;47.048;15.390;2022-09-12T02:20:09;0.50;;;0.30;;
12758;SDS011;20944;47.048;15.390;2022-09-12T02:23:01;0.20;;;0.20;;
12758;SDS011;20944;47.048;15.390;2022-09-12T02:25:33;1.60;;;0.30;;
12758;SDS011;20944;47.048;15.390;2022-09-12T02:28:09;0.20;;;0.20;;
12758;SDS011;20944;47.048;15.390;2022-09-12T02:30:42;3.30;;;0.40;;
12758;SDS011;20944;47.048;15.390;2022-09-12T02:33:19;0.23;;;0.23;;
12758;SDS011;20944;47.048;15.390;2022-09-12T02:35:55;0.30;;;0.27;;
12758;SDS011;20944;47.048;15.390;2022-09-12T02:38:32;0.53;;;0.30;;
12758;SDS011;20944;47.048;15.390;2022-09-12T02:41:06;0.37;;;0.37;;
12758;SDS011;20944;47.048;15.390;2022-09-12T02:43:34;0.67;;;0.30;;
12758;SDS011;20944;47.048;15.390;2022-09-12T02:46:04;1.63;;;0.30;;
12758;SDS011;20944;47.048;15.390;2022-09-12T02:48:39;0.20;;;0.20;;
12758;SDS011;20944;47.048;15.390;2022-09-12T02:51:10;0.50;;;0.30;;
12758;SDS011;20944;47.048;15.390;2022-09-12T02:53:39;0.20;;;0.13;;
12758;SDS011;20944;47.048;15.390;2022-09-12T02:56:10;0.10;;;0.10;;
12758;SDS011;20944;47.048;15.390;2022-09-12T02:58:43;0.20;;;0.20;;
12758;SDS011;20944;47.048;15.390;2022-09-12T03:01:15;0.27;;;0.27;;
12758;SDS011;20944;47.048;15.390;2022-09-12T03:04:07;0.20;;;0.20;;
12758;SDS011;20944;47.048;15.390;2022-09-12T03:06:50;0.97;;;0.40;;
12758;SDS011;20944;47.048;15.390;2022-09-12T03:09:27;0.40;;;0.20;;
12758;SDS011;20944;47.048;15.390;2022-09-12T03:12:07;0.47;;;0.30;;
12758;SDS011;20944;47.048;15.390;2022-09-12T03:14:51;0.60;;;0.20;;
12758;SDS011;20944;47.048;15.390;2022-09-12T03:17:36;0.40;;;0.40;;
12758;SDS011;20944;47.048;15.390;2022-09-12T03:20:16;1.13;;;0.30;;
12758;SDS011;20944;47.048;15.390;2022-09-12T03:22:55;1.60;;;0.40;;
12758;SDS011;20944;47.048;15.390;2022-09-12T03:25:31;0.40;;;0.30;;
12758;SDS011;20944;47.048;15.390;2022-09-12T03:28:04;0.60;;;0.40;;
12758;SDS011;20944;47.048;15.390;2022-09-12T03:30:38;0.50;;;0.20;;
12758;SDS011;20944;47.048;15.390;2022-09-12T03:33:09;0.20;;;0.20;;
12758;SDS011;20944;47.048;15.390;2022-09-12T03:35:40;0.40;;;0.30;;
12758;SDS011;20944;47.048;15.390;2022-09-12T03:38:09;0.30;;;0.30;;
12758;SDS011;20944;47.048;15.390;2022-09-12T03:40:37;1.50;;;0.30;;
12758;SDS011;20944;47.048;15.390;2022-09-12T03:43:06;0.30;;;0.30;;
12758;SDS011;20944;47.048;15.390;2022-09-12T03:45:36;0.43;;;0.37;;
12758;SDS011;20944;47.048;15.390;2022-09-12T03:48:05;0.37;;;0.37;;
12758;SDS011;20944;47.048;15.390;2022-09-12T03:50:33;0.53;;;0.30;;
12758;SDS011;20944;47.048;15.390;2022-09-12T03:53:03;1.50;;;0.30;;
12758;SDS011;20944;47.048;15.390;2022-09-12T03:55:31;0.73;;;0.30;;
12758;SDS011;20944;47.048;15.390;2022-09-12T03:57:59;0.40;;;0.40;;
12758;SDS011;20944;47.048;15.390;2022-09-12T04:00:27;0.70;;;0.40;;
12758;SDS011;20944;47.048;15.390;2022-09-12T04:02:56;1.13;;;0.40;;
12758;SDS011;20944;47.048;15.390;2022-09-12T04:05:24;0.67;;;0.20;;
12758;SDS011;20944;47.048;15.390;2022-09-12T04:07:53;0.50;;;0.40;;
12758;SDS011;20944;47.048;15.390;2022-09-12T04:10:23;1.30;;;0.30;;
12758;SDS011;20944;47.048;15.390;2022-09-12T04:12:51;0.67;;;0.30;;
12758;SDS011;20944;47.048;15.390;2022-09-12T04:15:20;0.60;;;0.40;;
12758;SDS011;20944;47.048;15.390;2022-09-12T04:17:48;2.53;;;0.40;;
12758;SDS011;20944;47.048;15.390;2022-09-12T04:20:16;1.70;;;0.30;;
12758;SDS011;20944;47.048;15.390;2022-09-12T04:22:44;0.40;;;0.40;;
12758;SDS011;20944;47.048;15.390;2022-09-12T04:25:13;0.40;;;0.40;;
12758;SDS011;20944;47.048;15.390;2022-09-12T04:27:42;0.70;;;0.40;;
12758;SDS011;20944;47.048;15.390;2022-09-12T04:30:11;0.37;;;0.37;;
12758;SDS011;20944;47.048;15.390;2022-09-12T04:32:40;0.63;;;0.60;;
12758;SDS011;20944;47.048;15.390;2022-09-12T04:35:08;1.03;;;0.80;;
12758;SDS011;20944;47.048;15.390;2022-09-12T04:37:38;2.20;;;0.80;;
12758;SDS011;20944;47.048;15.390;2022-09-12T04:40:06;0.73;;;0.60;;
12758;SDS011;20944;47.048;15.390;2022-09-12T04:42:35;2.40;;;0.57;;
12758;SDS011;20944;47.048;15.390;2022-09-12T04:45:05;0.60;;;0.60;;
12758;SDS011;20944;47.048;15.390;2022-09-12T04:47:34;1.63;;;0.57;;
12758;SDS011;20944;47.048;15.390;2022-09-12T04:50:03;0.73;;;0.60;;
12758;SDS011;20944;47.048;15.390;2022-09-12T04:52:31;0.53;;;0.53;;
12758;SDS011;20944;47.048;15.390;2022-09-12T04:55:00;0.57;;;0.40;;
12758;SDS011;20944;47.048;15.390;2022-09-12T04:57:28;0.50;;;0.50;;
12758;SDS011;20944;47.048;15.390;2022-09-12T04:59:56;0.77;;;0.40;;
12758;SDS011;20944;47.048;15.390;2022-09-12T05:02:33;0.97;;;0.33;;
12758;SDS011;20944;47.048;15.390;2022-09-12T05:05:01;3.70;;;0.50;;
12758;SDS011;20944;47.048;15.390;2022-09-12T05:07:29;1.30;;;0.50;;
12758;SDS011;20944;47.048;15.390;2022-09-12T05:09:57;0.50;;;0.50;;
12758;SDS011;20944;47.048;15.390;2022-09-12T05:12:26;1.70;;;0.60;;
12758;SDS011;20944;47.048;15.390;2022-09-12T05:14:55;1.63;;;0.40;;
12758;SDS011;20944;47.048;15.390;2022-09-12T05:17:23;0.77;;;0.37;;
12758;SDS011;20944;47.048;15.390;2022-09-12T05:19:53;1.17;;;0.50;;
12758;SDS011;20944;47.048;15.390;2022-09-12T05:22:21;2.57;;;0.60;;
12758;SDS011;20944;47.048;15.390;2022-09-12T05:24:49;5.47;;;0.50;;
12758;SDS011;20944;47.048;15.390;2022-09-12T05:27:17;1.83;;;0.50;;
12758;SDS011;20944;47.048;15.390;2022-09-12T05:29:46;1.13;;;0.60;;
12758;SDS011;20944;47.048;15.390;2022-09-12T05:32:14;2.93;;;0.67;;
12758;SDS011;20944;47.048;15.390;2022-09-12T05:34:42;3.40;;;0.63;;
12758;SDS011;20944;47.048;15.390;2022-09-12T05:37:12;0.50;;;0.50;;
12758;SDS011;20944;47.048;15.390;2022-09-12T05:39:41;3.60;;;0.60;;
12758;SDS011;20944;47.048;15.390;2022-09-12T05:42:10;1.60;;;0.80;;
12758;SDS011;20944;47.048;15.390;2022-09-12T05:44:38;2.00;;;0.70;;
12758;SDS011;20944;47.048;15.390;2022-09-12T05:47:08;0.60;;;0.50;;
12758;SDS011;20944;47.048;15.390;2022-09-12T05:49:38;3.00;;;0.90;;
12758;SDS011;20944;47.048;15.390;2022-09-12T05:52:07;0.90;;;0.70;;
12758;SDS011;20944;47.048;15.390;2022-09-12T05:54:36;1.17;;;0.80;;
12758;SDS011;20944;47.048;15.390;2022-09-12T05:57:04;0.90;;;0.80;;
12758;SDS011;20944;47.048;15.390;2022-09-12T05:59:33;0.93;;;0.63;;
12758;SDS011;20944;47.048;15.390;2022-09-12T06:02:01;2.67;;;0.90;;
12758;SDS011;20944;47.048;15.390;2022-09-12T06:04:29;1.05;;;0.90;;
12758;SDS011;20944;47.048;15.390;2022-09-12T06:06:57;3.23;;;1.00;;
12758;SDS011;20944;47.048;15.390;2022-09-12T06:09:26;3.45;;;0.90;;
12758;SDS011;20944;47.048;15.390;2022-09-12T06:11:55;2.78;;;1.20;;
12758;SDS011;20944;47.048;15.390;2022-09-12T06:14:24;2.40;;;1.10;;
12758;SDS011;20944;47.048;15.390;2022-09-12T06:16:52;2.63;;;1.30;;
12758;SDS011;20944;47.048;15.390;2022-09-12T06:19:21;2.10;;;1.23;;
12758;SDS011;20944;47.048;15.390;2022-09-12T06:21:50;4.43;;;1.02;;
12758;SDS011;20944;47.048;15.390;2022-09-12T06:24:19;5.80;;;1.20;;
12758;SDS011;20944;47.048;15.390;2022-09-12T06:26:48;1.55;;;1.10;;
12758;SDS011;20944;47.048;15.390;2022-09-12T06:29:19;1.45;;;0.98;;
12758;SDS011;20944;47.048;15.390;2022-09-12T06:31:47;3.60;;;1.10;;
12758;SDS011;20944;47.048;15.390;2022-09-12T06:34:15;1.10;;;0.85;;
12758;SDS011;20944;47.048;15.390;2022-09-12T06:36:46;1.50;;;0.90;;
12758;SDS011;20944;47.048;15.390;2022-09-12T06:39:16;1.40;;;1.00;;
12758;SDS011;20944;47.048;15.390;2022-09-12T06:41:46;1.52;;;1.00;;
12758;SDS011;20944;47.048;15.390;2022-09-12T06:44:15;2.28;;;0.88;;
12758;SDS011;20944;47.048;15.390;2022-09-12T06:46:47;1.10;;;1.00;;
12758;SDS011;20944;47.048;15.390;2022-09-12T06:49:15;1.95;;;1.25;;
12758;SDS011;20944;47.048;15.390;2022-09-12T06:51:44;1.20;;;0.70;;
12758;SDS011;20944;47.048;15.390;2022-09-12T06:54:13;1.85;;;1.13;;
12758;SDS011;20944;47.048;15.390;2022-09-12T06:56:42;1.88;;;1.00;;
12758;SDS011;20944;47.048;15.390;2022-09-12T06:59:11;3.20;;;1.20;;
12758;SDS011;20944;47.048;15.390;2022-09-12T07:01:39;2.05;;;1.13;;
12758;SDS011;20944;47.048;15.390;2022-09-12T07:04:09;1.63;;;1.13;;
12758;SDS011;20944;47.048;15.390;2022-09-12T07:06:38;1.05;;;0.95;;
12758;SDS011;20944;47.048;15.390;2022-09-12T07:09:09;3.55;;;1.10;;
12758;SDS011;20944;47.048;15.390;2022-09-12T07:11:39;1.48;;;0.85;;
12758;SDS011;20944;47.048;15.390;2022-09-12T07:14:09;0.82;;;0.82;;
12758;SDS011;20944;47.048;15.390;2022-09-12T07:16:38;4.05;;;1.35;;
12758;SDS011;20944;47.048;15.390;2022-09-12T07:19:07;1.08;;;0.80;;
12758;SDS011;20944;47.048;15.390;2022-09-12T07:21:37;2.08;;;1.25;;
12758;SDS011;20944;47.048;15.390;2022-09-12T07:24:06;4.35;;;1.17;;
12758;SDS011;20944;47.048;15.390;2022-09-12T07:26:36;1.30;;;0.95;;
12758;SDS011;20944;47.048;15.390;2022-09-12T07:29:06;2.00;;;1.05;;
12758;SDS011;20944;47.048;15.390;2022-09-12T07:32:00;0.77;;;0.77;;
12758;SDS011;20944;47.048;15.390;2022-09-12T07:34:28;1.08;;;0.90;;
12758;SDS011;20944;47.048;15.390;2022-09-12T07:36:58;2.58;;;1.00;;
12758;SDS011;20944;47.048;15.390;2022-09-12T07:39:26;2.53;;;0.57;;
12758;SDS011;20944;47.048;15.390;2022-09-12T07:41:54;1.25;;;0.77;;
12758;SDS011;20944;47.048;15.390;2022-09-12T07:44:23;0.90;;;0.80;;
12758;SDS011;20944;47.048;15.390;2022-09-12T07:46:52;3.90;;;0.90;;
12758;SDS011;20944;47.048;15.390;2022-09-12T07:49:20;2.10;;;0.70;;
12758;SDS011;20944;47.048;15.390;2022-09-12T07:51:49;2.75;;;0.98;;
12758;SDS011;20944;47.048;15.390;2022-09-12T07:54:18;1.08;;;0.65;;
12758;SDS011;20944;47.048;15.390;2022-09-12T07:56:47;1.85;;;0.90;;
12758;SDS011;20944;47.048;15.390;2022-09-12T07:59:15;1.33;;;0.90;;
12758;SDS011;20944;47.048;15.390;2022-09-12T08:02:04;1.65;;;0.90;;
12758;SDS011;20944;47.048;15.390;2022-09-12T08:04:32;2.00;;;0.90;;
12758;SDS011;20944;47.048;15.390;2022-09-12T08:07:02;1.52;;;0.80;;
12758;SDS011;20944;47.048;15.390;2022-09-12T08:09:31;1.02;;;0.65;;
12758;SDS011;20944;47.048;15.390;2022-09-12T08:12:00;1.20;;;0.50;;
12758;SDS011;20944;47.048;15.390;2022-09-12T08:14:29;0.73;;;0.55;;
12758;SDS011;20944;47.048;15.390;2022-09-12T08:16:57;2.00;;;0.70;;
12758;SDS011;20944;47.048;15.390;2022-09-12T08:19:25;2.17;;;0.70;;
12758;SDS011;20944;47.048;15.390;2022-09-12T08:21:53;0.68;;;0.68;;
12758;SDS011;20944;47.048;15.390;2022-09-12T08:24:22;1.67;;;0.50;;
12758;SDS011;20944;47.048;15.390;2022-09-12T08:26:51;1.65;;;0.60;;
12758;SDS011;20944;47.048;15.390;2022-09-12T08:29:20;1.65;;;0.65;;
12758;SDS011;20944;47.048;15.390;2022-09-12T08:31:48;2.72;;;0.47;;
12758;SDS011;20944;47.048;15.390;2022-09-12T08:34:22;3.10;;;0.70;;
12758;SDS011;20944;47.048;15.390;2022-09-12T08:36:51;0.50;;;0.40;;
12758;SDS011;20944;47.048;15.390;2022-09-12T08:39:20;3.30;;;0.68;;
12758;SDS011;20944;47.048;15.390;2022-09-12T08:41:55;0.88;;;0.57;;
12758;SDS011;20944;47.048;15.390;2022-09-12T08:44:44;3.03;;;0.70;;
12758;SDS011;20944;47.048;15.390;2022-09-12T08:47:26;2.85;;;0.50;;
12758;SDS011;20944;47.048;15.390;2022-09-12T08:50:11;0.88;;;0.68;;
12758;SDS011;20944;47.048;15.390;2022-09-12T08:52:47;0.73;;;0.45;;
12758;SDS011;20944;47.048;15.390;2022-09-12T08:55:24;1.48;;;0.88;;
12758;SDS011;20944;47.048;15.390;2022-09-12T08:57:54;0.70;;;0.70;;
12758;SDS011;20944;47.048;15.390;2022-09-12T09:00:23;3.10;;;0.50;;
12758;SDS011;20944;47.048;15.390;2022-09-12T09:03:08;0.95;;;0.50;;
12758;SDS011;20944;47.048;15.390;2022-09-12T09:05:57;0.70;;;0.43;;
12758;SDS011;20944;47.048;15.390;2022-09-12T09:08:39;1.50;;;0.57;;
12758;SDS011;20944;47.048;15.390;2022-09-12T09:11:25;0.43;;;0.43;;
12758;SDS011;20944;47.048;15.390;2022-09-12T09:14:12;1.67;;;0.60;;
12758;SDS011;20944;47.048;15.390;2022-09-12T09:17:14;0.63;;;0.50;;
12758;SDS011;20944;47.048;15.390;2022-09-12T09:19:48;0.63;;;0.60;;
12758;SDS011;20944;47.048;15.390;2022-09-12T09:22:24;1.85;;;0.60;;
12758;SDS011;20944;47.048;15.390;2022-09-12T09:25:00;0.95;;;0.60;;
12758;SDS011;20944;47.048;15.390;2022-09-12T09:27:32;0.82;;;0.60;;
12758;SDS011;20944;47.048;15.390;2022-09-12T09:30:11;0.60;;;0.60;;
12758;SDS011;20944;47.048;15.390;2022-09-12T09:32:42;0.73;;;0.40;;
12758;SDS011;20944;47.048;15.390;2022-09-12T09:35:15;2.13;;;0.50;;
12758;SDS011;20944;47.048;15.390;2022-09-12T09:37:52;0.50;;;0.45;;
12758;SDS011;20944;47.048;15.390;2022-09-12T09:40:31;1.98;;;0.50;;
12758;SDS011;20944;47.048;15.390;2022-09-12T09:43:08;0.68;;;0.50;;
12758;SDS011;20944;47.048;15.390;2022-09-12T09:45:46;0.60;;;0.60;;
12758;SDS011;20944;47.048;15.390;2022-09-12T09:48:16;0.50;;;0.50;;
12758;SDS011;20944;47.048;15.390;2022-09-12T09:50:46;0.98;;;0.80;;
12758;SDS011;20944;47.048;15.390;2022-09-12T09:53:26;0.50;;;0.50;;
12758;SDS011;20944;47.048;15.390;2022-09-12T09:56:00;1.45;;;0.50;;
12758;SDS011;20944;47.048;15.390;2022-09-12T09:58:33;1.10;;;0.70;;
12758;SDS011;20944;47.048;15.390;2022-09-12T10:01:04;0.50;;;0.50;;
12758;SDS011;20944;47.048;15.390;2022-09-12T10:03:39;0.50;;;0.50;;
12758;SDS011;20944;47.048;15.390;2022-09-12T10:06:20;0.57;;;0.52;;
12758;SDS011;20944;47.048;15.390;2022-09-12T10:09:02;0.55;;;0.40;;
12758;SDS011;20944;47.048;15.390;2022-09-12T10:11:44;1.75;;;0.60;;
12758;SDS011;20944;47.048;15.390;2022-09-12T10:14:36;1.10;;;0.70;;
12758;SDS011;20944;47.048;15.390;2022-09-12T10:17:23;1.52;;;0.50;;
12758;SDS011;20944;47.048;15.390;2022-09-12T10:20:00;0.75;;;0.40;;
12758;SDS011;20944;47.048;15.390;2022-09-12T10:22:47;0.50;;;0.50;;
12758;SDS011;20944;47.048;15.390;2022-09-12T10:25:16;0.82;;;0.50;;
12758;SDS011;20944;47.048;15.390;2022-09-12T10:27:51;1.05;;;0.50;;
12758;SDS011;20944;47.048;15.390;2022-09-12T10:30:20;1.17;;;0.60;;
12758;SDS011;20944;47.048;15.390;2022-09-12T10:32:52;0.45;;;0.45;;
12758;SDS011;20944;47.048;15.390;2022-09-12T10:35:27;0.82;;;0.60;;
12758;SDS011;20944;47.048;15.390;2022-09-12T10:37:59;0.55;;;0.55;;
12758;SDS011;20944;47.048;15.390;2022-09-12T10:40:31;0.50;;;0.50;;
12758;SDS011;20944;47.048;15.390;2022-09-12T10:43:14;1.65;;;0.50;;
12758;SDS011;20944;47.048;15.390;2022-09-12T10:45:44;1.05;;;0.40;;
12758;SDS011;20944;47.048;15.390;2022-09-12T10:48:23;0.50;;;0.50;;
12758;SDS011;20944;47.048;15.390;2022-09-12T10:50:55;0.50;;;0.50;;
12758;SDS011;20944;47.048;15.390;2022-09-12T10:53:24;0.93;;;0.50;;
12758;SDS011;20944;47.048;15.390;2022-09-12T10:56:04;0.82;;;0.60;;
12758;SDS011;20944;47.048;15.390;2022-09-12T10:58:37;0.60;;;0.60;;
12758;SDS011;20944;47.048;15.390;2022-09-12T11:01:17;0.73;;;0.50;;
12758;SDS011;20944;47.048;15.390;2022-09-12T11:04:04;1.08;;;0.70;;
12758;SDS011;20944;47.048;15.390;2022-09-12T11:06:47;0.50;;;0.50;;
12758;SDS011;20944;47.048;15.390;2022-09-12T11:09:26;0.52;;;0.50;;
12758;SDS011;20944;47.048;15.390;2022-09-12T11:12:03;1.70;;;0.60;;
12758;SDS011;20944;47.048;15.390;2022-09-12T11:14:43;2.72;;;0.77;;
12758;SDS011;20944;47.048;15.390;2022-09-12T11:17:24;0.55;;;0.55;;
12758;SDS011;20944;47.048;15.390;2022-09-12T11:20:08;0.50;;;0.50;;
12758;SDS011;20944;47.048;15.390;2022-09-12T11:25:50;0.63;;;0.63;;
12758;SDS011;20944;47.048;15.390;2022-09-12T11:28:37;0.52;;;0.52;;
12758;SDS011;20944;47.048;15.390;2022-09-12T11:31:19;2.17;;;0.50;;
12758;SDS011;20944;47.048;15.390;2022-09-12T11:33:58;1.52;;;0.60;;
12758;SDS011;20944;47.048;15.390;2022-09-12T11:36:32;0.55;;;0.52;;
12758;SDS011;20944;47.048;15.390;2022-09-12T11:39:08;0.80;;;0.50;;
12758;SDS011;20944;47.048;15.390;2022-09-12T11:41:41;0.45;;;0.45;;
12758;SDS011;20944;47.048;15.390;2022-09-12T11:44:16;0.65;;;0.63;;
12758;SDS011;20944;47.048;15.390;2022-09-12T11:46:50;0.60;;;0.60;;
12758;SDS011;20944;47.048;15.390;2022-09-12T11:49:20;0.50;;;0.50;;
12758;SDS011;20944;47.048;15.390;2022-09-12T11:52:02;1.17;;;0.40;;
12758;SDS011;20944;47.048;15.390;2022-09-12T11:54:38;0.50;;;0.50;;
12758;SDS011;20944;47.048;15.390;2022-09-12T11:57:19;0.57;;;0.50;;
12758;SDS011;20944;47.048;15.390;2022-09-12T11:59:56;0.60;;;0.60;;
12758;SDS011;20944;47.048;15.390;2022-09-12T12:02:29;0.60;;;0.60;;
12758;SDS011;20944;47.048;15.390;2022-09-12T12:05:14;0.50;;;0.50;;
12758;SDS011;20944;47.048;15.390;2022-09-12T12:07:51;1.48;;;0.50;;
12758;SDS011;20944;47.048;15.390;2022-09-12T12:10:21;0.52;;;0.50;;
12758;SDS011;20944;47.048;15.390;2022-09-12T12:12:52;0.55;;;0.52;;
12758;SDS011;20944;47.048;15.390;2022-09-12T12:15:22;0.40;;;0.40;;
12758;SDS011;20944;47.048;15.390;2022-09-12T12:18:02;0.50;;;0.50;;
12758;SDS011;20944;47.048;15.390;2022-09-12T12:20:33;0.50;;;0.50;;
12758;SDS011;20944;47.048;15.390;2022-09-12T12:23:04;0.40;;;0.40;;
12758;SDS011;20944;47.048;15.390;2022-09-12T12:25:39;0.60;;;0.60;;
12758;SDS011;20944;47.048;15.390;2022-09-12T12:31:18;0.50;;;0.50;;
12758;SDS011;20944;47.048;15.390;2022-09-12T12:33:54;0.50;;;0.50;;
12758;SDS011;20944;47.048;15.390;2022-09-12T12:36:40;0.40;;;0.40;;
12758;SDS011;20944;47.048;15.390;2022-09-12T12:46:05;0.50;;;0.50;;
12758;SDS011;20944;47.048;15.390;2022-09-12T12:51:47;0.68;;;0.68;;
12758;SDS011;20944;47.048;15.390;2022-09-12T12:54:26;0.50;;;0.45;;
12758;SDS011;20944;47.048;15.390;2022-09-12T12:57:05;0.60;;;0.50;;
12758;SDS011;20944;47.048;15.390;2022-09-12T12:59:47;0.70;;;0.70;;
12758;SDS011;20944;47.048;15.390;2022-09-12T13:02:22;0.50;;;0.50;;
12758;SDS011;20944;47.048;15.390;2022-09-12T13:04:54;0.50;;;0.50;;
12758;SDS011;20944;47.048;15.390;2022-09-12T13:07:25;0.50;;;0.50;;
12758;SDS011;20944;47.048;15.390;2022-09-12T13:09:57;0.60;;;0.60;;
12758;SDS011;20944;47.048;15.390;2022-09-12T13:12:27;0.75;;;0.50;;
12758;SDS011;20944;47.048;15.390;2022-09-12T13:15:01;0.50;;;0.50;;
12758;SDS011;20944;47.048;15.390;2022-09-12T13:17:52;0.40;;;0.40;;
12758;SDS011;20944;47.048;15.390;2022-09-12T13:20:25;0.47;;;0.47;;
12758;SDS011;20944;47.048;15.390;2022-09-12T13:22:57;0.50;;;0.50;;
12758;SDS011;20944;47.048;15.390;2022-09-12T13:25:27;0.75;;;0.50;;
12758;SDS011;20944;47.048;15.390;2022-09-12T13:27:58;0.40;;;0.40;;
12758;SDS011;20944;47.048;15.390;2022-09-12T13:30:32;0.60;;;0.60;;
12758;SDS011;20944;47.048;15.390;2022-09-12T13:33:07;0.57;;;0.57;;
12758;SDS011;20944;47.048;15.390;2022-09-12T13:35:42;0.80;;;0.60;;
12758;SDS011;20944;47.048;15.390;2022-09-12T13:38:23;0.88;;;0.50;;
12758;SDS011;20944;47.048;15.390;2022-09-12T13:41:10;0.70;;;0.60;;
12758;SDS011;20944;47.048;15.390;2022-09-12T13:43:52;0.50;;;0.50;;
12758;SDS011;20944;47.048;15.390;2022-09-12T13:46:23;0.50;;;0.50;;
12758;SDS011;20944;47.048;15.390;2022-09-12T13:48:59;0.50;;;0.50;;
12758;SDS011;20944;47.048;15.390;2022-09-12T13:51:33;0.50;;;0.50;;
12758;SDS011;20944;47.048;15.390;2022-09-12T13:54:02;0.40;;;0.40;;
12758;SDS011;20944;47.048;15.390;2022-09-12T13:56:32;0.60;;;0.60;;
12758;SDS011;20944;47.048;15.390;2022-09-12T13:59:00;0.50;;;0.50;;
12758;SDS011;20944;47.048;15.390;2022-09-12T14:01:36;0.50;;;0.50;;
12758;SDS011;20944;47.048;15.390;2022-09-12T14:07:12;0.73;;;0.50;;
12758;SDS011;20944;47.048;15.390;2022-09-12T14:09:43;0.50;;;0.50;;
12758;SDS011;20944;47.048;15.390;2022-09-12T14:12:13;0.73;;;0.60;;
12758;SDS011;20944;47.048;15.390;2022-09-12T14:17:22;0.63;;;0.63;;
12758;SDS011;20944;47.048;15.390;2022-09-12T14:19:58;0.52;;;0.52;;
12758;SDS011;20944;47.048;15.390;2022-09-12T16:03:12;1.15;;;1.00;;
12758;SDS011;20944;47.048;15.390;2022-09-12T16:10:44;1.38;;;0.80;;
12758;SDS011;20944;47.048;15.390;2022-09-12T16:13:15;1.95;;;0.70;;
12758;SDS011;20944;47.048;15.390;2022-09-12T16:15:44;2.03;;;1.00;;
12758;SDS011;20944;47.048;15.390;2022-09-12T16:18:12;0.88;;;0.88;;
12758;SDS011;20944;47.048;15.390;2022-09-12T16:20:41;0.70;;;0.70;;
12758;SDS011;20944;47.048;15.390;2022-09-12T16:23:09;1.35;;;0.73;;
12758;SDS011;20944;47.048;15.390;2022-09-12T16:25:38;2.50;;;0.63;;
12758;SDS011;20944;47.048;15.390;2022-09-12T16:28:07;4.05;;;0.75;;
12758;SDS011;20944;47.048;15.390;2022-09-12T16:30:37;4.97;;;0.80;;
12758;SDS011;20944;47.048;15.390;2022-09-12T16:33:05;0.93;;;0.68;;
12758;SDS011;20944;47.048;15.390;2022-09-12T16:35:34;3.00;;;0.60;;
12758;SDS011;20944;47.048;15.390;2022-09-12T16:38:02;1.88;;;1.42;;
12758;SDS011;20944;47.048;15.390;2022-09-12T16:40:30;2.33;;;0.77;;
12758;SDS011;20944;47.048;15.390;2022-09-12T16:42:58;1.08;;;0.60;;
12758;SDS011;20944;47.048;15.390;2022-09-12T16:45:27;0.60;;;0.60;;
12758;SDS011;20944;47.048;15.390;2022-09-12T16:47:56;1.80;;;0.45;;
12758;SDS011;20944;47.048;15.390;2022-09-12T16:50:25;0.35;;;0.35;;
12758;SDS011;20944;47.048;15.390;2022-09-12T16:52:54;0.85;;;0.70;;
12758;SDS011;20944;47.048;15.390;2022-09-12T16:55:23;0.80;;;0.50;;
12758;SDS011;20944;47.048;15.390;2022-09-12T16:57:51;0.65;;;0.60;;
12758;SDS011;20944;47.048;15.390;2022-09-12T17:00:19;1.00;;;0.82;;
12758;SDS011;20944;47.048;15.390;2022-09-12T17:02:48;0.80;;;0.80;;
12758;SDS011;20944;47.048;15.390;2022-09-12T17:05:17;1.38;;;1.08;;
12758;SDS011;20944;47.048;15.390;2022-09-12T17:07:46;0.70;;;0.68;;
12758;SDS011;20944;47.048;15.390;2022-09-12T17:10:14;0.82;;;0.77;;
12758;SDS011;20944;47.048;15.390;2022-09-12T17:12:42;0.73;;;0.73;;
12758;SDS011;20944;47.048;15.390;2022-09-12T17:15:11;2.65;;;1.67;;
12758;SDS011;20944;47.048;15.390;2022-09-12T17:17:42;1.58;;;1.40;;